createdAt,value
2022-09-05T00:02:21.210Z,4.68
2022-09-05T00:04:57.847Z,4.60
2022-09-05T00:07:57.951Z,4.88
2022-09-05T00:10:36.193Z,4.45
2022-09-05T00:13:11.174Z,4.40
2022-09-05T00:15:50.508Z,4.70
2022-09-05T00:24:11.037Z,4.65
2022-09-05T00:24:27.483Z,4.43
2022-09-05T00:25:07.284Z,4.50
2022-09-05T00:27:51.055Z,4.68
2022-09-05T00:31:51.913Z,4.68
2022-09-05T00:33:21.443Z,4.22
2022-09-05T00:36:09.901Z,4.47
2022-09-05T00:38:43.081Z,4.50
2022-09-05T00:41:14.495Z,4.50
2022-09-05T00:43:44.661Z,4.68
2022-09-05T00:46:17.660Z,4.88
2022-09-05T00:48:52.751Z,4.85
2022-09-05T00:51:34.782Z,4.60
2022-09-05T00:54:40.329Z,5.05
2022-09-05T00:57:30.586Z,4.65
2022-09-05T01:00:16.986Z,5.43
2022-09-05T01:03:27.101Z,4.53
2022-09-05T01:06:18.971Z,5.10
2022-09-05T01:09:21.491Z,5.15
2022-09-05T01:12:07.778Z,5.03
2022-09-05T01:14:48.478Z,4.85
2022-09-05T01:17:31.470Z,4.88
2022-09-05T01:20:20.184Z,4.50
2022-09-05T01:23:22.561Z,4.60
2022-09-05T01:26:10.426Z,5.00
2022-09-05T01:29:16.104Z,4.65
2022-09-05T01:31:44.731Z,5.05
2022-09-05T01:34:31.431Z,5.65
2022-09-05T01:37:08.475Z,5.45
2022-09-05T01:40:14.645Z,5.40
2022-09-05T01:43:00.695Z,5.38
2022-09-05T01:45:42.549Z,4.82
2022-09-05T01:48:23.677Z,5.10
2022-09-05T01:51:01.942Z,5.00
2022-09-05T01:53:43.156Z,5.45
2022-09-05T01:56:43.088Z,4.53
2022-09-05T01:59:26.927Z,5.28
2022-09-05T02:02:25.026Z,5.60
2022-09-05T02:05:47.899Z,4.53
2022-09-05T02:08:46.639Z,4.20
2022-09-05T02:11:16.599Z,4.63
2022-09-05T02:14:13.199Z,4.88
2022-09-05T02:16:56.836Z,4.55
2022-09-05T02:19:31.700Z,4.93
2022-09-05T02:22:09.363Z,5.32
2022-09-05T02:24:39.671Z,5.53
2022-09-05T02:27:47.585Z,5.72
2022-09-05T02:30:16.685Z,5.97
2022-09-05T02:33:04.933Z,6.05
2022-09-05T02:35:42.479Z,5.13
2022-09-05T02:40:51.988Z,5.13
2022-09-05T02:45:15.181Z,5.03
2022-09-05T02:45:24.586Z,5.28
2022-09-05T02:47:00.351Z,5.70
2022-09-05T02:52:03.837Z,5.18
2022-09-05T02:57:29.485Z,5.20
2022-09-05T02:57:37.041Z,5.63
2022-09-05T02:59:09.085Z,5.55
2022-09-05T03:02:01.001Z,5.38
2022-09-05T03:04:39.306Z,6.13
2022-09-05T03:07:22.905Z,5.60
2022-09-05T03:10:10.107Z,6.05
2022-09-05T03:13:08.172Z,6.05
2022-09-05T03:16:11.091Z,6.05
2022-09-05T03:19:12.922Z,5.88
2022-09-05T03:22:24.327Z,6.28
2022-09-05T03:25:36.129Z,6.45
2022-09-05T03:28:29.764Z,7.07
2022-09-05T03:31:22.434Z,6.43
2022-09-05T03:34:41.572Z,6.80
2022-09-05T03:37:56.015Z,6.38
2022-09-05T03:40:50.189Z,6.68
2022-09-05T03:43:59.891Z,7.10
2022-09-05T03:46:48.947Z,7.20
2022-09-05T03:52:45.772Z,7.65
2022-09-05T03:57:11.773Z,7.28
2022-09-05T03:57:28.307Z,8.05
2022-09-05T03:58:56.283Z,7.63
2022-09-05T04:02:37.377Z,8.57
2022-09-05T04:08:15.119Z,8.20
2022-09-05T04:08:18.710Z,8.15
2022-09-05T04:10:31.030Z,7.93
2022-09-05T04:13:06.401Z,8.05
2022-09-05T04:15:42.043Z,8.27
2022-09-05T04:18:32.771Z,7.55
2022-09-05T04:21:08.846Z,6.78
2022-09-05T04:23:48.653Z,6.68
2022-09-05T04:26:46.300Z,7.60
2022-09-05T04:29:23.194Z,6.70
2022-09-05T04:32:17.445Z,6.35
2022-09-05T04:35:10.757Z,6.05
2022-09-05T04:37:48.531Z,6.15
2022-09-05T04:40:52.518Z,6.35
2022-09-05T04:43:28.961Z,5.93
2022-09-05T04:46:22.797Z,6.03
2022-09-05T04:49:03.156Z,5.72
2022-09-05T04:52:00.958Z,5.30
2022-09-05T04:54:45.819Z,5.65
2022-09-05T04:57:24.231Z,5.30
2022-09-05T05:06:00.143Z,5.00
2022-09-05T05:06:15.296Z,4.78
2022-09-05T05:06:17.930Z,5.60
2022-09-05T05:08:51.585Z,6.13
2022-09-05T05:14:27.339Z,5.28
2022-09-05T05:18:01.200Z,5.70
2022-09-05T05:18:07.037Z,4.90
2022-09-05T05:20:39.934Z,4.93
2022-09-05T05:23:07.312Z,5.03
2022-09-05T05:25:45.977Z,6.07
2022-09-05T05:28:23.961Z,5.20
2022-09-05T05:31:01.459Z,8.13
2022-09-05T05:40:50.874Z,4.78
2022-09-05T05:52:00.981Z,4.53
2022-09-05T05:54:41.800Z,4.30
2022-09-05T05:57:37.654Z,4.50
2022-09-05T06:00:15.022Z,4.32
2022-09-05T06:03:25.712Z,4.60
2022-09-05T06:06:16.169Z,5.93
2022-09-05T06:14:34.799Z,3.97
2022-09-05T06:14:58.872Z,5.78
2022-09-05T06:16:11.162Z,4.93
2022-09-05T06:19:24.124Z,4.60
2022-09-05T06:22:51.827Z,4.25
2022-09-05T06:25:58.892Z,3.97
2022-09-05T06:32:22.151Z,4.22
2022-09-05T06:35:30.877Z,4.32
2022-09-05T06:38:17.396Z,4.13
2022-09-05T06:40:55.534Z,5.57
2022-09-05T06:43:40.839Z,4.78
2022-09-05T06:46:54.767Z,4.63
2022-09-05T06:49:32.379Z,4.85
2022-09-05T06:52:39.561Z,4.50
2022-09-05T06:55:42.213Z,4.72
2022-09-05T06:58:46.266Z,3.95
2022-09-05T07:01:17.436Z,3.88
2022-09-05T07:04:49.337Z,4.68
2022-09-05T07:07:11.724Z,4.18
2022-09-05T07:09:57.526Z,3.83
2022-09-05T07:12:30.110Z,4.20
2022-09-05T07:15:09.266Z,4.32
2022-09-05T07:18:10.256Z,4.03
2022-09-05T07:21:16.790Z,4.15
2022-09-05T07:24:06.413Z,4.05
2022-09-05T07:26:51.850Z,3.72
2022-09-05T07:29:25.591Z,4.30
2022-09-05T07:31:57.972Z,3.53
2022-09-05T07:34:30.710Z,4.35
2022-09-05T07:37:15.302Z,4.13
2022-09-05T07:39:51.709Z,4.30
2022-09-05T07:42:26.583Z,4.45
2022-09-05T07:44:59.155Z,5.30
2022-09-05T07:47:30.704Z,4.78
2022-09-05T07:51:13.599Z,4.45
2022-09-05T07:57:00.269Z,3.53
2022-09-05T07:57:07.807Z,3.13
2022-09-05T07:58:44.097Z,4.30
2022-09-05T08:01:14.692Z,3.58
2022-09-05T08:03:44.646Z,4.47
2022-09-05T08:07:45.533Z,4.32
2022-09-05T08:10:05.232Z,4.10
2022-09-05T08:12:11.643Z,3.75
2022-09-05T08:14:52.848Z,4.45
2022-09-05T08:17:26.453Z,4.38
2022-09-05T08:20:23.765Z,4.07
2022-09-05T08:23:00.835Z,4.80
2022-09-05T08:25:36.236Z,4.57
2022-09-05T08:28:37.651Z,4.22
2022-09-05T08:31:12.749Z,4.80
2022-09-05T08:33:41.641Z,4.88
2022-09-05T08:36:19.330Z,4.85
2022-09-05T08:38:48.126Z,4.38
2022-09-05T08:41:37.512Z,4.57
2022-09-05T08:46:46.956Z,4.55
2022-09-05T08:47:19.528Z,5.20
2022-09-05T08:50:17.800Z,5.00
2022-09-05T08:52:58.784Z,5.00
2022-09-05T08:55:40.825Z,5.05
2022-09-05T08:58:34.055Z,4.43
2022-09-05T09:01:13.659Z,4.80
2022-09-05T09:04:02.216Z,4.75
2022-09-05T09:07:36.805Z,5.50
2022-09-05T09:10:01.805Z,5.28
2022-09-05T09:12:55.361Z,5.30
2022-09-05T09:15:30.943Z,5.15
2022-09-05T09:18:00.740Z,5.22
2022-09-05T09:20:47.577Z,4.78
2022-09-05T09:23:33.721Z,5.25
2022-09-05T09:26:11.702Z,5.93
2022-09-05T09:28:51.677Z,4.85
2022-09-05T09:31:33.286Z,7.60
2022-09-05T09:34:20.818Z,4.47
2022-09-05T09:37:44.181Z,4.63
2022-09-05T09:40:31.599Z,6.07
2022-09-05T09:43:07.295Z,4.85
2022-09-05T09:45:58.583Z,4.18
2022-09-05T09:49:21.661Z,3.88
2022-09-05T09:52:25.215Z,4.28
2022-09-05T09:55:42.124Z,4.57
2022-09-05T09:58:40.320Z,4.30
2022-09-05T10:01:36.484Z,3.78
2022-09-05T10:10:35.742Z,4.10
2022-09-05T10:10:45.544Z,4.00
2022-09-05T10:14:45.039Z,3.90
2022-09-05T10:17:40.597Z,3.58
2022-09-05T10:21:16.413Z,3.53
2022-09-05T10:24:14.763Z,3.88
2022-09-05T10:27:06.465Z,3.63
2022-09-05T10:29:47.894Z,3.65
2022-09-05T10:35:03.802Z,4.03
2022-09-05T10:35:25.726Z,4.00
2022-09-05T10:38:10.708Z,4.03
2022-09-05T10:41:20.005Z,4.60
2022-09-05T10:43:34.568Z,4.00
2022-09-05T10:46:39.725Z,6.30
2022-09-05T10:49:10.504Z,3.60
2022-09-05T10:51:51.853Z,3.65
2022-09-05T10:54:38.052Z,9.85
2022-09-05T10:57:23.353Z,3.42
2022-09-05T11:02:24.098Z,3.50
2022-09-05T11:03:02.119Z,3.63
2022-09-05T11:05:38.188Z,4.10
2022-09-05T11:08:12.300Z,3.53
2022-09-05T11:10:48.436Z,3.90
2022-09-05T11:13:27.731Z,2.63
2022-09-05T11:16:13.453Z,3.20
2022-09-05T11:18:57.075Z,3.20
2022-09-05T11:21:41.180Z,3.40
2022-09-05T11:24:27.579Z,3.88
2022-09-05T11:27:25.031Z,4.13
2022-09-05T11:29:54.873Z,3.60
2022-09-05T11:39:59.545Z,3.38
2022-09-05T11:40:10.762Z,3.28
2022-09-05T11:40:24.849Z,3.30
2022-09-05T11:42:32.120Z,2.70
2022-09-05T11:45:19.971Z,3.72
2022-09-05T11:48:10.769Z,2.50
2022-09-05T11:51:10.153Z,2.78
2022-09-05T11:54:23.272Z,2.60
2022-09-05T11:57:32.877Z,2.53
2022-09-05T12:00:31.204Z,3.10
2022-09-05T12:03:58.686Z,3.08
2022-09-05T12:07:30.723Z,3.60
2022-09-05T12:10:47.361Z,4.20
2022-09-05T12:13:17.579Z,3.70
2022-09-05T12:18:45.689Z,3.05
2022-09-05T12:21:31.851Z,2.75
2022-09-05T12:27:40.714Z,3.13
2022-09-05T12:30:03.669Z,2.90
2022-09-05T12:36:01.333Z,3.55
2022-09-05T12:36:07.009Z,3.25
2022-09-05T12:40:54.924Z,3.75
2022-09-05T12:41:41.216Z,3.22
2022-09-05T12:42:09.731Z,3.30
2022-09-05T12:42:10.994Z,2.85
2022-09-05T12:44:45.863Z,2.67
2022-09-05T12:47:21.153Z,2.60
2022-09-05T12:50:02.657Z,2.50
2022-09-05T12:52:42.814Z,2.20
2022-09-05T12:55:26.186Z,2.70
2022-09-05T13:02:57.217Z,2.40
2022-09-05T13:03:02.751Z,2.65
2022-09-05T13:04:16.075Z,2.60
2022-09-05T13:06:41.089Z,3.38
2022-09-05T13:09:11.692Z,3.08
2022-09-05T13:14:49.161Z,2.72
2022-09-05T13:15:21.862Z,3.00
2022-09-05T13:17:59.395Z,2.90
2022-09-05T13:20:35.097Z,3.03
2022-09-05T13:23:12.366Z,2.30
2022-09-05T13:25:44.057Z,2.50
2022-09-05T13:28:16.233Z,2.63
2022-09-05T13:37:54.041Z,2.80
2022-09-05T13:38:10.674Z,2.55
2022-09-05T13:38:13.810Z,2.63
2022-09-05T13:39:29.863Z,2.67
2022-09-05T13:42:03.716Z,2.53
2022-09-05T13:44:38.271Z,3.15
2022-09-05T13:47:29.660Z,3.65
2022-09-05T13:50:13.453Z,3.95
2022-09-05T13:52:47.408Z,3.13
2022-09-05T13:55:23.662Z,3.10
2022-09-05T13:57:56.630Z,3.22
2022-09-05T14:00:54.466Z,2.63
2022-09-05T14:03:43.269Z,2.75
2022-09-05T14:06:49.122Z,2.78
2022-09-05T14:09:44.566Z,2.30
2022-09-05T14:12:29.392Z,3.33
2022-09-05T14:15:10.409Z,5.28
2022-09-05T14:18:01.495Z,3.92
2022-09-05T14:20:51.054Z,4.10
2022-09-05T14:23:22.340Z,3.78
2022-09-05T14:25:57.094Z,2.67
2022-09-05T14:28:29.125Z,4.43
2022-09-05T14:37:35.845Z,3.28
2022-09-05T14:37:48.501Z,2.40
2022-09-05T14:37:48.902Z,3.58
2022-09-05T14:40:32.184Z,4.90
2022-09-05T14:43:48.340Z,2.47
2022-09-05T14:46:40.671Z,3.30
2022-09-05T14:50:07.492Z,3.38
2022-09-05T14:52:43.436Z,2.53
2022-09-05T15:02:41.740Z,2.90
2022-09-05T15:02:49.216Z,4.30
2022-09-05T15:06:38.717Z,2.33
2022-09-05T15:12:15.088Z,2.83
2022-09-05T15:12:21.217Z,2.22
2022-09-05T15:15:01.872Z,1.70
2022-09-05T15:17:34.807Z,2.00
2022-09-05T15:20:07.685Z,2.53
2022-09-05T15:22:37.886Z,2.67
2022-09-05T15:25:17.881Z,1.80
2022-09-05T15:27:47.356Z,2.00
2022-09-05T15:30:34.688Z,2.63
2022-09-05T15:33:25.364Z,2.60
2022-09-05T15:35:54.668Z,2.10
2022-09-05T15:38:26.199Z,2.03
2022-09-05T15:41:20.664Z,2.22
2022-09-05T15:43:54.166Z,2.47
2022-09-05T15:46:28.143Z,2.55
2022-09-05T15:49:06.002Z,2.60
2022-09-05T15:51:42.518Z,3.80
2022-09-05T15:54:15.612Z,1.70
2022-09-05T15:57:08.979Z,1.83
2022-09-05T15:59:49.359Z,1.85
2022-09-05T16:02:22.071Z,2.10
2022-09-05T16:10:30.050Z,2.88
2022-09-05T16:10:46.270Z,2.38
2022-09-05T16:11:27.861Z,2.10
2022-09-05T16:13:52.907Z,2.10
2022-09-05T16:21:45.988Z,2.30
2022-09-05T16:23:30.681Z,2.42
2022-09-05T16:23:31.628Z,4.00
2022-09-05T16:25:12.064Z,3.15
2022-09-05T16:27:52.915Z,4.28
2022-09-05T16:30:23.224Z,3.10
2022-09-05T16:32:57.664Z,3.13
2022-09-05T16:35:26.954Z,2.70
2022-09-05T16:38:07.946Z,2.15
2022-09-05T16:40:40.181Z,2.72
2022-09-05T16:43:12.448Z,3.17
2022-09-05T16:45:48.032Z,2.30
2022-09-05T16:48:34.214Z,2.50
2022-09-05T16:51:15.247Z,2.17
2022-09-05T16:53:59.034Z,2.10
2022-09-05T16:56:31.292Z,2.20
2022-09-05T16:59:04.174Z,2.72
2022-09-05T17:02:00.592Z,2.17
2022-09-05T17:05:04.619Z,2.03
2022-09-05T17:07:53.931Z,2.17
2022-09-05T17:10:27.458Z,1.88
2022-09-05T17:12:58.264Z,2.25
2022-09-05T17:15:29.922Z,2.03
2022-09-05T17:18:19.103Z,1.90
2022-09-05T17:20:55.695Z,1.92
2022-09-05T17:29:15.721Z,2.13
2022-09-05T17:29:30.088Z,2.10
2022-09-05T17:31:26.618Z,1.75
2022-09-05T17:32:45.672Z,2.15
2022-09-05T17:35:41.734Z,2.10
2022-09-05T17:38:36.880Z,1.73
2022-09-05T17:41:37.416Z,2.38
2022-09-05T17:44:19.372Z,2.00
2022-09-05T17:47:02.243Z,2.00
2022-09-05T17:49:45.500Z,2.08
2022-09-05T17:52:23.935Z,2.33
2022-09-05T17:54:55.407Z,1.70
2022-09-05T17:57:41.530Z,1.70
2022-09-05T18:01:01.119Z,1.83
2022-09-05T18:04:15.805Z,2.10
2022-09-05T18:06:59.658Z,2.40
2022-09-05T18:10:14.770Z,2.65
2022-09-05T18:13:31.331Z,2.22
2022-09-05T18:16:13.696Z,1.88
2022-09-05T18:19:28.376Z,2.00
2022-09-05T18:21:55.156Z,2.72
2022-09-05T18:24:36.193Z,2.78
2022-09-05T18:30:09.535Z,2.17
2022-09-05T18:32:47.288Z,2.38
2022-09-05T18:35:26.393Z,2.53
2022-09-05T18:38:34.510Z,3.25
2022-09-05T18:41:19.605Z,2.80
2022-09-05T18:44:13.061Z,2.20
2022-09-05T18:46:51.759Z,2.80
2022-09-05T18:50:23.339Z,2.47
2022-09-05T18:52:23.566Z,2.65
2022-09-05T18:55:57.834Z,2.40
2022-09-05T18:57:51.686Z,2.67
2022-09-05T19:00:35.162Z,3.10
2022-09-05T19:03:17.528Z,2.70
2022-09-05T19:05:50.346Z,3.50
2022-09-05T19:08:26.777Z,3.38
2022-09-05T19:11:01.022Z,2.70
2022-09-05T19:13:48.386Z,2.92
2022-09-05T19:16:43.243Z,2.88
2022-09-05T19:19:16.342Z,3.17
2022-09-05T19:22:09.055Z,2.65
2022-09-05T19:24:44.926Z,2.67
2022-09-05T19:28:29.226Z,2.42
2022-09-05T19:36:55.465Z,2.40
2022-09-05T19:36:58.828Z,2.50
2022-09-05T19:37:03.965Z,2.47
2022-09-05T19:40:06.414Z,2.22
2022-09-05T19:44:53.299Z,2.60
2022-09-05T19:47:42.806Z,2.40
2022-09-05T19:47:57.561Z,2.95
2022-09-05T19:50:11.715Z,4.10
2022-09-05T19:52:41.058Z,2.88
2022-09-05T19:55:22.411Z,3.13
2022-09-05T19:58:01.236Z,3.03
2022-09-05T20:00:59.352Z,3.22
2022-09-05T20:03:39.436Z,3.20
2022-09-05T20:06:30.146Z,2.53
2022-09-05T20:09:16.202Z,2.28
2022-09-05T20:11:47.704Z,2.67
2022-09-05T20:14:25.267Z,2.20
2022-09-05T20:16:57.181Z,2.30
2022-09-05T20:19:29.353Z,2.60
2022-09-05T20:22:18.750Z,2.50
2022-09-05T20:24:49.531Z,2.58
2022-09-05T20:27:18.167Z,2.60
2022-09-05T20:29:55.912Z,2.80
2022-09-05T20:32:38.683Z,2.20
2022-09-05T20:37:31.344Z,2.58
2022-09-05T20:43:11.318Z,3.33
2022-09-05T20:43:31.791Z,2.75
2022-09-05T20:43:57.768Z,2.22
2022-09-05T20:54:04.250Z,2.25
2022-09-05T20:54:15.606Z,2.20
2022-09-05T20:54:24.998Z,2.17
2022-09-05T20:55:38.601Z,2.00
2022-09-05T20:58:11.981Z,1.75
2022-09-05T21:01:02.438Z,1.92
2022-09-05T21:03:38.125Z,2.20
2022-09-05T21:06:25.661Z,2.20
2022-09-05T21:08:56.193Z,2.78
2022-09-05T21:11:32.722Z,2.25
2022-09-05T21:14:03.810Z,2.10
2022-09-05T21:16:36.021Z,2.47
2022-09-05T21:19:04.391Z,2.13
2022-09-05T21:21:35.998Z,2.05
2022-09-05T21:24:16.410Z,2.10
2022-09-05T21:26:48.229Z,2.38
2022-09-05T21:29:18.284Z,2.70
2022-09-05T21:31:54.331Z,2.55
2022-09-05T21:34:28.129Z,2.33
2022-09-05T21:37:06.819Z,2.80
2022-09-05T21:39:40.300Z,2.22
2022-09-05T21:44:46.764Z,1.95
2022-09-05T21:47:46.172Z,2.30
2022-09-05T21:48:07.894Z,2.40
2022-09-05T21:50:41.002Z,2.40
2022-09-05T21:57:03.202Z,2.78
2022-09-05T21:59:14.611Z,2.53
2022-09-05T21:59:25.701Z,2.60
2022-09-05T22:01:54.630Z,2.10
2022-09-05T22:04:23.035Z,2.28
2022-09-05T22:06:53.357Z,2.45
2022-09-05T22:09:23.935Z,2.33
2022-09-05T22:11:52.763Z,2.38
2022-09-05T22:14:22.569Z,2.72
2022-09-05T22:16:53.256Z,2.50
2022-09-05T22:19:33.990Z,2.72
2022-09-05T22:22:16.446Z,2.17
2022-09-05T22:24:53.046Z,2.70
2022-09-05T22:27:22.856Z,2.47
2022-09-05T22:29:52.227Z,2.67
2022-09-05T22:32:34.028Z,2.40
2022-09-05T22:35:16.012Z,2.75
2022-09-05T22:38:01.981Z,2.28
2022-09-05T22:40:32.402Z,2.78
2022-09-05T22:43:02.626Z,2.80
2022-09-05T22:45:32.230Z,2.78
2022-09-05T22:48:01.828Z,2.65
2022-09-05T22:50:29.973Z,3.28
2022-09-05T22:52:58.091Z,2.78
2022-09-05T22:55:26.298Z,2.40
2022-09-05T22:57:55.789Z,2.92
2022-09-05T23:00:23.885Z,2.80
2022-09-05T23:02:57.853Z,2.72
2022-09-05T23:05:26.445Z,2.55
2022-09-05T23:07:58.079Z,2.72
2022-09-05T23:10:26.704Z,2.70
2022-09-05T23:12:56.271Z,3.33
2022-09-05T23:15:24.386Z,3.50
2022-09-05T23:17:55.952Z,2.63
2022-09-05T23:20:25.225Z,2.58
2022-09-05T23:22:54.919Z,2.70
2022-09-05T23:25:23.900Z,3.17
2022-09-05T23:27:52.908Z,3.53
2022-09-05T23:30:31.887Z,3.05
2022-09-05T23:33:06.524Z,3.03
2022-09-05T23:35:35.067Z,3.13
2022-09-05T23:38:04.513Z,3.00
2022-09-05T23:40:33.117Z,2.90
2022-09-05T23:43:03.182Z,3.00
2022-09-05T23:45:40.871Z,4.18
2022-09-05T23:48:13.625Z,3.33
2022-09-05T23:50:45.226Z,3.33
2022-09-05T23:53:16.639Z,2.90
2022-09-05T23:55:45.411Z,3.43
2022-09-05T23:58:14.426Z,3.60
